Minneapolis, Minnesota
Traffic Map
Current Weather Conditions
Minneapolis, Minnesota
Broken Clouds
Broken Clouds
31°
Feels Like: 33°
Wind Chill: 31° Ceiling: 25000
Heat Index: 33° Visibility: 10mi
Dew Point: 21° Wind: 8mph
Humidity: 57% Direction: 180° (S)
Pressure: 29.93in Gusts: 0mph
Raw Report DataKMSP 232153Z 18007KT 10SM FEW047 SCT065TCU BKN250 31/21 A2993 RMK AO2 SLP127 TCU N-SE T03060211
Traffic Incident Summary
Active as of:
Severity:
Category:
InformationThere was an issue retrieving the traffic information for this location. Please try a different location or try again shortly.
Advertisements